Terminal Aerodrome Forecast
Issued by NWS Denver/Boulder, CO

Home | Current Version | Previous Version | Text Only | Print | Product List | Glossary On
Versions: 1 2 3 4 5 6 7 8 9 10 11 12 13 14 15 16 17 18 19 20 21 22 23 24 25 26 27 28 29 30 31 32 33 34 35 36 37 38 39 40 41 42 43 44 45 46 47 48 49 50
000
FTUS45 KBOU 192102 AAA
TAFDEN
TAF AMD
KDEN 192102Z 1921/2024 01009KT P6SM FEW090 SCT150 BKN220
     FM192200 23012KT P6SM SCT080 BKN150
      TEMPO 1922/2001 VRB20G35KT -TSRA BKN080CB
     FM200100 15012KT P6SM VCTS SCT080CB BKN120
      TEMPO 2003/2007 VRB15G25KT BKN080CB
     FM200700 22010KT P6SM FEW080 BKN120
     FM201600 30007KT P6SM SCT090
     FM202000 34010KT P6SM SCT090=

USA.gov is the U.S. government's official web portal to all federal, state and local government web resources and services.